sensor_id;sensor_type;location;lat;lon;timestamp;temperature;humidity
18880;DHT22;9572;52.378;13.404;2024-01-25T00:02:12;8.60;99.90
18880;DHT22;9572;52.378;13.404;2024-01-25T00:04:41;8.60;99.90
18880;DHT22;9572;52.378;13.404;2024-01-25T00:07:08;8.60;99.90
18880;DHT22;9572;52.378;13.404;2024-01-25T00:09:35;8.50;99.90
18880;DHT22;9572;52.378;13.404;2024-01-25T00:12:04;8.50;99.90
18880;DHT22;9572;52.378;13.404;2024-01-25T00:14:31;8.50;99.90
18880;DHT22;9572;52.378;13.404;2024-01-25T00:16:58;8.50;99.90
18880;DHT22;9572;52.378;13.404;2024-01-25T00:19:24;8.50;99.90
18880;DHT22;9572;52.378;13.404;2024-01-25T00:21:53;8.50;99.90
18880;DHT22;9572;52.378;13.404;2024-01-25T00:24:20;8.50;99.90
18880;DHT22;9572;52.378;13.404;2024-01-25T00:26:47;8.50;99.90
18880;DHT22;9572;52.378;13.404;2024-01-25T00:29:14;8.50;99.90
18880;DHT22;9572;52.378;13.404;2024-01-25T00:31:41;8.60;99.90
18880;DHT22;9572;52.378;13.404;2024-01-25T00:34:08;8.60;99.90
18880;DHT22;9572;52.378;13.404;2024-01-25T00:36:37;8.60;99.90
18880;DHT22;9572;52.378;13.404;2024-01-25T00:39:06;8.60;99.90
18880;DHT22;9572;52.378;13.404;2024-01-25T00:41:34;8.50;99.90
18880;DHT22;9572;52.378;13.404;2024-01-25T00:44:02;8.50;99.90
18880;DHT22;9572;52.378;13.404;2024-01-25T00:46:30;8.60;99.90
18880;DHT22;9572;52.378;13.404;2024-01-25T00:48:57;8.60;99.90
18880;DHT22;9572;52.378;13.404;2024-01-25T00:51:25;8.60;99.90
18880;DHT22;9572;52.378;13.404;2024-01-25T00:53:52;8.60;99.90
18880;DHT22;9572;52.378;13.404;2024-01-25T00:56:21;8.50;99.90
18880;DHT22;9572;52.378;13.404;2024-01-25T00:58:48;8.50;99.90
18880;DHT22;9572;52.378;13.404;2024-01-25T01:01:16;8.60;99.90
18880;DHT22;9572;52.378;13.404;2024-01-25T01:03:43;8.60;99.90
18880;DHT22;9572;52.378;13.404;2024-01-25T01:06:11;8.60;99.90
18880;DHT22;9572;52.378;13.404;2024-01-25T01:08:38;8.60;99.90
18880;DHT22;9572;52.378;13.404;2024-01-25T01:11:05;8.60;99.90
18880;DHT22;9572;52.378;13.404;2024-01-25T01:13:34;8.60;99.90
18880;DHT22;9572;52.378;13.404;2024-01-25T01:16:01;8.60;99.90
18880;DHT22;9572;52.378;13.404;2024-01-25T01:18:28;8.60;99.90
18880;DHT22;9572;52.378;13.404;2024-01-25T01:20:55;8.50;99.90
18880;DHT22;9572;52.378;13.404;2024-01-25T01:23:22;8.50;99.90
18880;DHT22;9572;52.378;13.404;2024-01-25T01:25:48;8.50;99.90
18880;DHT22;9572;52.378;13.404;2024-01-25T01:28:15;8.60;99.90
18880;DHT22;9572;52.378;13.404;2024-01-25T01:30:44;8.60;99.90
18880;DHT22;9572;52.378;13.404;2024-01-25T01:33:11;8.60;99.90
18880;DHT22;9572;52.378;13.404;2024-01-25T01:35:38;8.60;99.90
18880;DHT22;9572;52.378;13.404;2024-01-25T01:38:06;8.60;99.90
18880;DHT22;9572;52.378;13.404;2024-01-25T01:40:33;8.50;99.90
18880;DHT22;9572;52.378;13.404;2024-01-25T01:43:00;8.50;99.90
18880;DHT22;9572;52.378;13.404;2024-01-25T01:45:28;8.50;99.90
18880;DHT22;9572;52.378;13.404;2024-01-25T01:47:57;8.50;99.90
18880;DHT22;9572;52.378;13.404;2024-01-25T01:50:25;8.50;99.90
18880;DHT22;9572;52.378;13.404;2024-01-25T01:52:52;8.50;99.90
18880;DHT22;9572;52.378;13.404;2024-01-25T01:55:19;8.50;99.90
18880;DHT22;9572;52.378;13.404;2024-01-25T01:57:48;8.50;99.90
18880;DHT22;9572;52.378;13.404;2024-01-25T02:00:15;8.50;99.90
18880;DHT22;9572;52.378;13.404;2024-01-25T02:02:43;8.50;99.90
18880;DHT22;9572;52.378;13.404;2024-01-25T02:05:12;8.50;99.90
18880;DHT22;9572;52.378;13.404;2024-01-25T02:07:40;8.40;99.90
18880;DHT22;9572;52.378;13.404;2024-01-25T02:10:08;8.40;99.90
18880;DHT22;9572;52.378;13.404;2024-01-25T02:12:35;8.40;99.90
18880;DHT22;9572;52.378;13.404;2024-01-25T02:15:02;8.40;99.90
18880;DHT22;9572;52.378;13.404;2024-01-25T02:17:30;8.40;99.90
18880;DHT22;9572;52.378;13.404;2024-01-25T02:19:57;8.40;99.90
18880;DHT22;9572;52.378;13.404;2024-01-25T02:22:25;8.40;99.90
18880;DHT22;9572;52.378;13.404;2024-01-25T02:24:52;8.40;99.90
18880;DHT22;9572;52.378;13.404;2024-01-25T02:27:19;8.40;99.90
18880;DHT22;9572;52.378;13.404;2024-01-25T02:29:46;8.40;99.90
18880;DHT22;9572;52.378;13.404;2024-01-25T02:32:13;8.30;99.90
18880;DHT22;9572;52.378;13.404;2024-01-25T02:34:40;8.30;99.90
18880;DHT22;9572;52.378;13.404;2024-01-25T02:37:07;8.30;99.90
18880;DHT22;9572;52.378;13.404;2024-01-25T02:39:35;8.40;99.90
18880;DHT22;9572;52.378;13.404;2024-01-25T02:42:03;8.30;99.90
18880;DHT22;9572;52.378;13.404;2024-01-25T02:44:30;8.30;99.90
18880;DHT22;9572;52.378;13.404;2024-01-25T02:46:57;8.30;99.90
18880;DHT22;9572;52.378;13.404;2024-01-25T02:49:26;8.30;99.90
18880;DHT22;9572;52.378;13.404;2024-01-25T02:51:53;8.30;99.90
18880;DHT22;9572;52.378;13.404;2024-01-25T02:54:20;8.30;99.90
18880;DHT22;9572;52.378;13.404;2024-01-25T02:56:48;8.30;99.90
18880;DHT22;9572;52.378;13.404;2024-01-25T02:59:15;8.30;99.90
18880;DHT22;9572;52.378;13.404;2024-01-25T03:01:43;8.30;99.90
18880;DHT22;9572;52.378;13.404;2024-01-25T03:04:10;8.30;99.90
18880;DHT22;9572;52.378;13.404;2024-01-25T03:06:37;8.30;99.90
18880;DHT22;9572;52.378;13.404;2024-01-25T03:09:04;8.20;99.90
18880;DHT22;9572;52.378;13.404;2024-01-25T03:11:31;8.30;99.90
18880;DHT22;9572;52.378;13.404;2024-01-25T03:13:59;8.20;99.90
18880;DHT22;9572;52.378;13.404;2024-01-25T03:16:26;8.30;99.90
18880;DHT22;9572;52.378;13.404;2024-01-25T03:18:53;8.30;99.90
18880;DHT22;9572;52.378;13.404;2024-01-25T03:21:20;8.30;99.90
18880;DHT22;9572;52.378;13.404;2024-01-25T03:23:47;8.20;99.90
18880;DHT22;9572;52.378;13.404;2024-01-25T03:26:14;8.20;99.90
18880;DHT22;9572;52.378;13.404;2024-01-25T03:28:41;8.20;99.90
18880;DHT22;9572;52.378;13.404;2024-01-25T03:31:09;8.20;99.90
18880;DHT22;9572;52.378;13.404;2024-01-25T03:33:36;8.20;99.90
18880;DHT22;9572;52.378;13.404;2024-01-25T03:36:04;8.20;99.90
18880;DHT22;9572;52.378;13.404;2024-01-25T03:38:31;8.20;99.90
18880;DHT22;9572;52.378;13.404;2024-01-25T03:40:58;8.20;99.90
18880;DHT22;9572;52.378;13.404;2024-01-25T03:43:25;8.20;99.90
18880;DHT22;9572;52.378;13.404;2024-01-25T03:45:52;8.20;99.90
18880;DHT22;9572;52.378;13.404;2024-01-25T03:48:21;8.20;99.90
18880;DHT22;9572;52.378;13.404;2024-01-25T03:50:48;8.10;99.90
18880;DHT22;9572;52.378;13.404;2024-01-25T03:53:15;8.10;99.90
18880;DHT22;9572;52.378;13.404;2024-01-25T03:55:42;8.10;99.90
18880;DHT22;9572;52.378;13.404;2024-01-25T03:58:09;8.10;99.90
18880;DHT22;9572;52.378;13.404;2024-01-25T04:00:35;8.10;99.90
18880;DHT22;9572;52.378;13.404;2024-01-25T04:03:02;8.10;99.90
18880;DHT22;9572;52.378;13.404;2024-01-25T04:05:31;8.00;99.90
18880;DHT22;9572;52.378;13.404;2024-01-25T04:07:57;8.10;99.90
18880;DHT22;9572;52.378;13.404;2024-01-25T04:10:24;8.00;99.90
18880;DHT22;9572;52.378;13.404;2024-01-25T04:12:51;8.00;99.90
18880;DHT22;9572;52.378;13.404;2024-01-25T04:15:18;8.10;99.90
18880;DHT22;9572;52.378;13.404;2024-01-25T04:17:45;8.00;99.90
18880;DHT22;9572;52.378;13.404;2024-01-25T04:20:12;8.10;99.90
18880;DHT22;9572;52.378;13.404;2024-01-25T04:22:40;8.10;99.90
18880;DHT22;9572;52.378;13.404;2024-01-25T04:25:08;8.10;99.90
18880;DHT22;9572;52.378;13.404;2024-01-25T04:27:37;8.10;99.90
18880;DHT22;9572;52.378;13.404;2024-01-25T04:30:04;8.10;99.90
18880;DHT22;9572;52.378;13.404;2024-01-25T04:32:31;8.10;99.90
18880;DHT22;9572;52.378;13.404;2024-01-25T04:34:58;8.10;99.90
18880;DHT22;9572;52.378;13.404;2024-01-25T04:37:25;8.10;99.90
18880;DHT22;9572;52.378;13.404;2024-01-25T04:39:53;8.00;99.90
18880;DHT22;9572;52.378;13.404;2024-01-25T04:42:20;8.10;99.90
18880;DHT22;9572;52.378;13.404;2024-01-25T04:44:47;8.00;99.90
18880;DHT22;9572;52.378;13.404;2024-01-25T04:47:14;8.00;99.90
18880;DHT22;9572;52.378;13.404;2024-01-25T04:49:41;8.00;99.90
18880;DHT22;9572;52.378;13.404;2024-01-25T04:52:08;8.10;99.90
18880;DHT22;9572;52.378;13.404;2024-01-25T04:54:34;8.00;99.90
18880;DHT22;9572;52.378;13.404;2024-01-25T04:57:03;8.00;99.90
18880;DHT22;9572;52.378;13.404;2024-01-25T04:59:32;8.00;99.90
18880;DHT22;9572;52.378;13.404;2024-01-25T05:01:59;8.00;99.90
18880;DHT22;9572;52.378;13.404;2024-01-25T05:04:28;8.00;99.90
18880;DHT22;9572;52.378;13.404;2024-01-25T05:06:57;7.90;99.90
18880;DHT22;9572;52.378;13.404;2024-01-25T05:09:24;7.90;99.90
18880;DHT22;9572;52.378;13.404;2024-01-25T05:11:51;8.00;99.90
18880;DHT22;9572;52.378;13.404;2024-01-25T05:14:19;8.00;99.90
18880;DHT22;9572;52.378;13.404;2024-01-25T05:16:46;8.00;99.90
18880;DHT22;9572;52.378;13.404;2024-01-25T05:19:12;7.90;99.90
18880;DHT22;9572;52.378;13.404;2024-01-25T05:21:39;7.90;99.90
18880;DHT22;9572;52.378;13.404;2024-01-25T05:24:06;7.90;99.90
18880;DHT22;9572;52.378;13.404;2024-01-25T05:26:35;7.90;99.90
18880;DHT22;9572;52.378;13.404;2024-01-25T05:29:02;7.90;99.90
18880;DHT22;9572;52.378;13.404;2024-01-25T05:31:30;7.90;99.90
18880;DHT22;9572;52.378;13.404;2024-01-25T05:33:57;7.90;99.90
18880;DHT22;9572;52.378;13.404;2024-01-25T05:36:24;8.00;99.90
18880;DHT22;9572;52.378;13.404;2024-01-25T05:38:51;7.90;99.90
18880;DHT22;9572;52.378;13.404;2024-01-25T05:41:18;7.90;99.90
18880;DHT22;9572;52.378;13.404;2024-01-25T05:43:45;7.90;99.90
18880;DHT22;9572;52.378;13.404;2024-01-25T05:46:12;7.90;99.90
18880;DHT22;9572;52.378;13.404;2024-01-25T05:48:40;7.80;99.90
18880;DHT22;9572;52.378;13.404;2024-01-25T05:51:07;7.90;99.90
18880;DHT22;9572;52.378;13.404;2024-01-25T05:53:34;7.90;99.90
18880;DHT22;9572;52.378;13.404;2024-01-25T05:56:01;7.90;99.90
18880;DHT22;9572;52.378;13.404;2024-01-25T05:58:29;7.80;99.90
18880;DHT22;9572;52.378;13.404;2024-01-25T06:00:56;7.90;99.90
18880;DHT22;9572;52.378;13.404;2024-01-25T06:03:23;7.80;99.90
18880;DHT22;9572;52.378;13.404;2024-01-25T06:05:51;7.80;99.90
18880;DHT22;9572;52.378;13.404;2024-01-25T06:08:18;7.80;99.90
18880;DHT22;9572;52.378;13.404;2024-01-25T06:10:45;7.80;99.90
18880;DHT22;9572;52.378;13.404;2024-01-25T06:13:12;7.80;99.90
18880;DHT22;9572;52.378;13.404;2024-01-25T06:15:40;7.80;99.90
18880;DHT22;9572;52.378;13.404;2024-01-25T06:18:07;7.80;99.90
18880;DHT22;9572;52.378;13.404;2024-01-25T06:20:34;7.80;99.90
18880;DHT22;9572;52.378;13.404;2024-01-25T06:23:02;7.80;99.90
18880;DHT22;9572;52.378;13.404;2024-01-25T06:25:29;7.80;99.90
18880;DHT22;9572;52.378;13.404;2024-01-25T06:27:56;7.80;99.90
18880;DHT22;9572;52.378;13.404;2024-01-25T06:30:24;7.80;99.90
18880;DHT22;9572;52.378;13.404;2024-01-25T06:32:51;7.80;99.90
18880;DHT22;9572;52.378;13.404;2024-01-25T06:35:18;7.80;99.90
18880;DHT22;9572;52.378;13.404;2024-01-25T06:37:45;7.80;99.90
18880;DHT22;9572;52.378;13.404;2024-01-25T06:40:13;7.80;99.90
18880;DHT22;9572;52.378;13.404;2024-01-25T06:42:40;7.80;99.90
18880;DHT22;9572;52.378;13.404;2024-01-25T06:45:08;7.80;99.90
18880;DHT22;9572;52.378;13.404;2024-01-25T06:47:35;7.80;99.90
18880;DHT22;9572;52.378;13.404;2024-01-25T06:50:02;7.80;99.90
18880;DHT22;9572;52.378;13.404;2024-01-25T06:52:29;7.80;99.90
18880;DHT22;9572;52.378;13.404;2024-01-25T06:54:56;7.80;99.90
18880;DHT22;9572;52.378;13.404;2024-01-25T06:57:25;7.80;99.90
18880;DHT22;9572;52.378;13.404;2024-01-25T06:59:52;7.80;99.90
18880;DHT22;9572;52.378;13.404;2024-01-25T07:02:19;7.80;99.90
18880;DHT22;9572;52.378;13.404;2024-01-25T07:04:46;7.80;99.90
18880;DHT22;9572;52.378;13.404;2024-01-25T07:07:13;7.80;99.90
18880;DHT22;9572;52.378;13.404;2024-01-25T07:09:40;7.90;99.90
18880;DHT22;9572;52.378;13.404;2024-01-25T07:12:07;7.90;99.90
18880;DHT22;9572;52.378;13.404;2024-01-25T07:14:35;7.90;99.90
18880;DHT22;9572;52.378;13.404;2024-01-25T07:17:02;7.90;99.90
18880;DHT22;9572;52.378;13.404;2024-01-25T07:19:29;7.90;99.90
18880;DHT22;9572;52.378;13.404;2024-01-25T07:21:56;7.80;99.90
18880;DHT22;9572;52.378;13.404;2024-01-25T07:24:23;7.90;99.90
18880;DHT22;9572;52.378;13.404;2024-01-25T07:26:51;7.90;99.90
18880;DHT22;9572;52.378;13.404;2024-01-25T07:29:18;7.80;99.90
18880;DHT22;9572;52.378;13.404;2024-01-25T07:31:46;7.80;99.90
18880;DHT22;9572;52.378;13.404;2024-01-25T07:34:13;7.90;99.90
18880;DHT22;9572;52.378;13.404;2024-01-25T07:36:40;7.90;99.90
18880;DHT22;9572;52.378;13.404;2024-01-25T07:39:07;7.80;99.90
18880;DHT22;9572;52.378;13.404;2024-01-25T07:41:34;7.90;99.90
18880;DHT22;9572;52.378;13.404;2024-01-25T07:44:01;7.80;99.90
18880;DHT22;9572;52.378;13.404;2024-01-25T07:46:28;7.80;99.90
18880;DHT22;9572;52.378;13.404;2024-01-25T07:48:56;7.90;99.90
18880;DHT22;9572;52.378;13.404;2024-01-25T07:51:23;7.90;99.90
18880;DHT22;9572;52.378;13.404;2024-01-25T07:53:53;7.90;99.90
18880;DHT22;9572;52.378;13.404;2024-01-25T07:56:20;7.90;99.90
18880;DHT22;9572;52.378;13.404;2024-01-25T07:58:48;7.80;99.90
18880;DHT22;9572;52.378;13.404;2024-01-25T08:01:17;7.90;99.90
18880;DHT22;9572;52.378;13.404;2024-01-25T08:03:44;7.90;99.90
18880;DHT22;9572;52.378;13.404;2024-01-25T08:06:13;7.80;99.90
18880;DHT22;9572;52.378;13.404;2024-01-25T08:08:40;7.80;99.90
18880;DHT22;9572;52.378;13.404;2024-01-25T08:11:07;7.80;99.90
18880;DHT22;9572;52.378;13.404;2024-01-25T08:13:35;7.80;99.90
18880;DHT22;9572;52.378;13.404;2024-01-25T08:16:02;7.80;99.90
18880;DHT22;9572;52.378;13.404;2024-01-25T08:18:29;7.80;99.90
18880;DHT22;9572;52.378;13.404;2024-01-25T08:20:56;7.80;99.90
18880;DHT22;9572;52.378;13.404;2024-01-25T08:23:24;7.90;99.90
18880;DHT22;9572;52.378;13.404;2024-01-25T08:25:51;7.90;99.90
18880;DHT22;9572;52.378;13.404;2024-01-25T08:28:18;7.90;99.90
18880;DHT22;9572;52.378;13.404;2024-01-25T08:30:45;7.90;99.90
18880;DHT22;9572;52.378;13.404;2024-01-25T08:33:13;7.90;99.90
18880;DHT22;9572;52.378;13.404;2024-01-25T08:35:40;7.90;99.90
18880;DHT22;9572;52.378;13.404;2024-01-25T08:38:07;8.00;99.90
18880;DHT22;9572;52.378;13.404;2024-01-25T08:40:36;7.90;99.90
18880;DHT22;9572;52.378;13.404;2024-01-25T08:43:03;8.00;99.90
18880;DHT22;9572;52.378;13.404;2024-01-25T08:45:30;8.00;99.90
18880;DHT22;9572;52.378;13.404;2024-01-25T08:47:57;8.00;99.90
18880;DHT22;9572;52.378;13.404;2024-01-25T08:50:24;8.00;99.90
18880;DHT22;9572;52.378;13.404;2024-01-25T08:52:50;8.00;99.90
18880;DHT22;9572;52.378;13.404;2024-01-25T08:55:18;8.10;99.90
18880;DHT22;9572;52.378;13.404;2024-01-25T08:57:46;8.10;99.90
18880;DHT22;9572;52.378;13.404;2024-01-25T09:00:13;8.10;99.90
18880;DHT22;9572;52.378;13.404;2024-01-25T09:02:41;8.00;99.90
18880;DHT22;9572;52.378;13.404;2024-01-25T09:05:08;8.10;99.90
18880;DHT22;9572;52.378;13.404;2024-01-25T09:07:35;8.00;99.90
18880;DHT22;9572;52.378;13.404;2024-01-25T09:10:02;8.10;99.90
18880;DHT22;9572;52.378;13.404;2024-01-25T09:12:30;8.00;99.90
18880;DHT22;9572;52.378;13.404;2024-01-25T09:14:58;8.10;99.90
18880;DHT22;9572;52.378;13.404;2024-01-25T09:17:25;8.10;99.90
18880;DHT22;9572;52.378;13.404;2024-01-25T09:19:52;8.10;99.90
18880;DHT22;9572;52.378;13.404;2024-01-25T09:22:19;8.10;99.90
18880;DHT22;9572;52.378;13.404;2024-01-25T09:24:46;8.10;99.90
18880;DHT22;9572;52.378;13.404;2024-01-25T09:27:13;8.20;99.90
18880;DHT22;9572;52.378;13.404;2024-01-25T09:29:41;8.10;99.90
18880;DHT22;9572;52.378;13.404;2024-01-25T09:32:09;8.10;99.90
18880;DHT22;9572;52.378;13.404;2024-01-25T09:34:37;8.10;99.90
18880;DHT22;9572;52.378;13.404;2024-01-25T09:37:04;8.10;99.90
18880;DHT22;9572;52.378;13.404;2024-01-25T09:39:32;8.20;99.90
18880;DHT22;9572;52.378;13.404;2024-01-25T09:41:59;8.20;99.90
18880;DHT22;9572;52.378;13.404;2024-01-25T09:44:26;8.20;99.90
18880;DHT22;9572;52.378;13.404;2024-01-25T09:46:53;8.20;99.90
18880;DHT22;9572;52.378;13.404;2024-01-25T09:49:21;8.20;99.90
18880;DHT22;9572;52.378;13.404;2024-01-25T09:51:50;8.30;99.90
18880;DHT22;9572;52.378;13.404;2024-01-25T09:54:18;8.20;99.90
18880;DHT22;9572;52.378;13.404;2024-01-25T09:56:45;8.20;99.90
18880;DHT22;9572;52.378;13.404;2024-01-25T09:59:13;8.20;99.90
18880;DHT22;9572;52.378;13.404;2024-01-25T10:01:40;8.20;99.90
18880;DHT22;9572;52.378;13.404;2024-01-25T10:04:07;8.20;99.90
18880;DHT22;9572;52.378;13.404;2024-01-25T10:06:36;8.20;99.90
18880;DHT22;9572;52.378;13.404;2024-01-25T10:09:04;8.10;99.90
18880;DHT22;9572;52.378;13.404;2024-01-25T10:11:35;8.10;99.90
18880;DHT22;9572;52.378;13.404;2024-01-25T10:14:03;8.10;99.90
18880;DHT22;9572;52.378;13.404;2024-01-25T10:16:30;8.10;99.90
18880;DHT22;9572;52.378;13.404;2024-01-25T10:18:57;8.20;99.90
18880;DHT22;9572;52.378;13.404;2024-01-25T10:21:24;8.20;99.90
18880;DHT22;9572;52.378;13.404;2024-01-25T10:23:55;8.10;99.90
18880;DHT22;9572;52.378;13.404;2024-01-25T10:26:26;8.10;99.90
18880;DHT22;9572;52.378;13.404;2024-01-25T10:28:54;8.20;99.90
18880;DHT22;9572;52.378;13.404;2024-01-25T10:31:23;8.20;99.90
18880;DHT22;9572;52.378;13.404;2024-01-25T10:33:52;8.30;99.90
18880;DHT22;9572;52.378;13.404;2024-01-25T10:36:20;8.30;99.90
18880;DHT22;9572;52.378;13.404;2024-01-25T10:38:49;8.30;99.90
18880;DHT22;9572;52.378;13.404;2024-01-25T10:41:19;8.40;99.90
18880;DHT22;9572;52.378;13.404;2024-01-25T10:43:46;8.40;99.90
18880;DHT22;9572;52.378;13.404;2024-01-25T10:46:13;8.40;99.90
18880;DHT22;9572;52.378;13.404;2024-01-25T10:48:41;8.40;99.90
18880;DHT22;9572;52.378;13.404;2024-01-25T10:51:09;8.50;99.90
18880;DHT22;9572;52.378;13.404;2024-01-25T10:53:37;8.50;99.90
18880;DHT22;9572;52.378;13.404;2024-01-25T10:56:05;8.50;99.90
18880;DHT22;9572;52.378;13.404;2024-01-25T10:58:34;8.50;99.90
18880;DHT22;9572;52.378;13.404;2024-01-25T11:01:02;8.50;99.90
18880;DHT22;9572;52.378;13.404;2024-01-25T11:03:30;8.50;99.90
18880;DHT22;9572;52.378;13.404;2024-01-25T11:06:06;8.50;99.90
18880;DHT22;9572;52.378;13.404;2024-01-25T11:08:34;8.50;99.90
18880;DHT22;9572;52.378;13.404;2024-01-25T11:11:05;8.50;99.90
18880;DHT22;9572;52.378;13.404;2024-01-25T11:13:38;8.50;99.90
18880;DHT22;9572;52.378;13.404;2024-01-25T11:16:12;8.60;99.90
18880;DHT22;9572;52.378;13.404;2024-01-25T11:18:48;8.60;99.90
18880;DHT22;9572;52.378;13.404;2024-01-25T11:21:22;8.60;99.90
18880;DHT22;9572;52.378;13.404;2024-01-25T11:23:59;8.60;99.90
18880;DHT22;9572;52.378;13.404;2024-01-25T11:26:26;8.60;99.90
18880;DHT22;9572;52.378;13.404;2024-01-25T11:28:54;8.60;99.90
18880;DHT22;9572;52.378;13.404;2024-01-25T11:31:22;8.60;99.90
18880;DHT22;9572;52.378;13.404;2024-01-25T11:33:50;8.70;99.90
18880;DHT22;9572;52.378;13.404;2024-01-25T11:36:20;8.60;99.90
18880;DHT22;9572;52.378;13.404;2024-01-25T11:38:48;8.60;99.90
18880;DHT22;9572;52.378;13.404;2024-01-25T11:41:15;8.70;99.90
18880;DHT22;9572;52.378;13.404;2024-01-25T11:43:41;8.70;99.90
18880;DHT22;9572;52.378;13.404;2024-01-25T11:46:10;8.70;99.90
18880;DHT22;9572;52.378;13.404;2024-01-25T11:48:39;8.60;99.90
18880;DHT22;9572;52.378;13.404;2024-01-25T11:51:06;8.60;99.90
18880;DHT22;9572;52.378;13.404;2024-01-25T11:53:35;8.60;99.90
18880;DHT22;9572;52.378;13.404;2024-01-25T11:56:03;8.60;99.90
18880;DHT22;9572;52.378;13.404;2024-01-25T11:58:31;8.70;99.90
18880;DHT22;9572;52.378;13.404;2024-01-25T12:00:58;8.60;99.90
18880;DHT22;9572;52.378;13.404;2024-01-25T12:03:26;8.60;99.90
18880;DHT22;9572;52.378;13.404;2024-01-25T12:05:53;8.70;99.90
18880;DHT22;9572;52.378;13.404;2024-01-25T12:08:23;8.70;99.90
18880;DHT22;9572;52.378;13.404;2024-01-25T12:10:49;8.80;99.90
18880;DHT22;9572;52.378;13.404;2024-01-25T12:13:16;8.80;99.90
18880;DHT22;9572;52.378;13.404;2024-01-25T12:15:44;8.90;99.90
18880;DHT22;9572;52.378;13.404;2024-01-25T12:18:13;8.90;99.90
18880;DHT22;9572;52.378;13.404;2024-01-25T12:20:42;8.90;99.90
18880;DHT22;9572;52.378;13.404;2024-01-25T12:23:09;8.90;99.90
18880;DHT22;9572;52.378;13.404;2024-01-25T12:25:39;8.90;99.90
18880;DHT22;9572;52.378;13.404;2024-01-25T12:28:06;9.00;99.90
18880;DHT22;9572;52.378;13.404;2024-01-25T12:30:33;9.00;99.90
18880;DHT22;9572;52.378;13.404;2024-01-25T12:33:00;9.00;99.90
18880;DHT22;9572;52.378;13.404;2024-01-25T12:35:27;8.90;99.90
18880;DHT22;9572;52.378;13.404;2024-01-25T12:37:55;8.90;99.90
18880;DHT22;9572;52.378;13.404;2024-01-25T12:40:22;8.90;99.90
18880;DHT22;9572;52.378;13.404;2024-01-25T12:42:49;8.90;99.90
18880;DHT22;9572;52.378;13.404;2024-01-25T12:45:16;9.00;99.90
18880;DHT22;9572;52.378;13.404;2024-01-25T12:47:43;9.10;99.90
18880;DHT22;9572;52.378;13.404;2024-01-25T12:50:10;9.10;99.90
18880;DHT22;9572;52.378;13.404;2024-01-25T12:52:37;9.10;99.90
18880;DHT22;9572;52.378;13.404;2024-01-25T12:55:06;9.00;99.90
18880;DHT22;9572;52.378;13.404;2024-01-25T12:57:33;8.90;99.90
18880;DHT22;9572;52.378;13.404;2024-01-25T13:00:00;8.90;99.90
18880;DHT22;9572;52.378;13.404;2024-01-25T13:02:27;8.90;99.90
18880;DHT22;9572;52.378;13.404;2024-01-25T13:04:54;8.90;99.90
18880;DHT22;9572;52.378;13.404;2024-01-25T13:07:21;8.80;99.90
18880;DHT22;9572;52.378;13.404;2024-01-25T13:09:48;8.80;99.90
18880;DHT22;9572;52.378;13.404;2024-01-25T13:12:16;8.70;99.90
18880;DHT22;9572;52.378;13.404;2024-01-25T13:14:43;8.70;99.90
18880;DHT22;9572;52.378;13.404;2024-01-25T13:17:10;8.70;99.90
18880;DHT22;9572;52.378;13.404;2024-01-25T13:19:37;8.70;99.90
18880;DHT22;9572;52.378;13.404;2024-01-25T13:22:04;8.60;99.90
18880;DHT22;9572;52.378;13.404;2024-01-25T13:24:30;8.60;99.90
18880;DHT22;9572;52.378;13.404;2024-01-25T13:26:57;8.60;99.90
18880;DHT22;9572;52.378;13.404;2024-01-25T13:29:25;8.50;99.90
18880;DHT22;9572;52.378;13.404;2024-01-25T13:31:52;8.50;99.90
18880;DHT22;9572;52.378;13.404;2024-01-25T13:34:19;8.50;99.90
18880;DHT22;9572;52.378;13.404;2024-01-25T13:36:46;8.50;99.90
18880;DHT22;9572;52.378;13.404;2024-01-25T13:39:13;8.50;99.90
18880;DHT22;9572;52.378;13.404;2024-01-25T13:41:40;8.50;99.90
18880;DHT22;9572;52.378;13.404;2024-01-25T13:44:06;8.50;99.90
18880;DHT22;9572;52.378;13.404;2024-01-25T13:46:35;8.50;99.90
18880;DHT22;9572;52.378;13.404;2024-01-25T13:49:01;8.50;99.90
18880;DHT22;9572;52.378;13.404;2024-01-25T13:51:28;8.50;99.90
18880;DHT22;9572;52.378;13.404;2024-01-25T13:53:55;8.50;99.90
18880;DHT22;9572;52.378;13.404;2024-01-25T13:56:22;8.50;99.90
18880;DHT22;9572;52.378;13.404;2024-01-25T13:58:49;8.60;99.90
18880;DHT22;9572;52.378;13.404;2024-01-25T14:01:16;8.60;99.90
18880;DHT22;9572;52.378;13.404;2024-01-25T14:03:44;8.60;99.90
18880;DHT22;9572;52.378;13.404;2024-01-25T14:06:11;8.60;99.90
18880;DHT22;9572;52.378;13.404;2024-01-25T14:08:38;8.60;99.90
18880;DHT22;9572;52.378;13.404;2024-01-25T14:11:05;8.60;99.90
18880;DHT22;9572;52.378;13.404;2024-01-25T14:13:32;8.50;99.90
18880;DHT22;9572;52.378;13.404;2024-01-25T14:15:59;8.50;99.90
18880;DHT22;9572;52.378;13.404;2024-01-25T14:18:27;8.50;99.90
18880;DHT22;9572;52.378;13.404;2024-01-25T14:20:56;8.50;99.90
18880;DHT22;9572;52.378;13.404;2024-01-25T14:23:23;8.50;99.90
18880;DHT22;9572;52.378;13.404;2024-01-25T14:25:50;8.50;99.90
18880;DHT22;9572;52.378;13.404;2024-01-25T14:28:17;8.50;99.90
18880;DHT22;9572;52.378;13.404;2024-01-25T14:30:44;8.50;99.90
18880;DHT22;9572;52.378;13.404;2024-01-25T14:33:12;8.50;99.90
18880;DHT22;9572;52.378;13.404;2024-01-25T14:35:39;8.50;99.90
18880;DHT22;9572;52.378;13.404;2024-01-25T14:38:07;8.50;99.90
18880;DHT22;9572;52.378;13.404;2024-01-25T14:40:34;8.50;99.90
18880;DHT22;9572;52.378;13.404;2024-01-25T14:43:01;8.50;99.90
18880;DHT22;9572;52.378;13.404;2024-01-25T14:45:28;8.50;99.90
18880;DHT22;9572;52.378;13.404;2024-01-25T14:47:55;8.50;99.90
18880;DHT22;9572;52.378;13.404;2024-01-25T14:50:23;8.30;99.90
18880;DHT22;9572;52.378;13.404;2024-01-25T14:52:50;8.40;99.90
18880;DHT22;9572;52.378;13.404;2024-01-25T14:55:18;8.40;99.90
18880;DHT22;9572;52.378;13.404;2024-01-25T14:57:45;8.40;99.90
18880;DHT22;9572;52.378;13.404;2024-01-25T15:00:13;8.40;99.90
18880;DHT22;9572;52.378;13.404;2024-01-25T15:02:45;8.40;99.90
18880;DHT22;9572;52.378;13.404;2024-01-25T15:05:12;8.40;99.90
18880;DHT22;9572;52.378;13.404;2024-01-25T15:07:39;8.30;99.90
18880;DHT22;9572;52.378;13.404;2024-01-25T15:10:07;8.30;99.90
18880;DHT22;9572;52.378;13.404;2024-01-25T15:12:35;8.30;99.90
18880;DHT22;9572;52.378;13.404;2024-01-25T15:15:03;8.30;99.90
18880;DHT22;9572;52.378;13.404;2024-01-25T15:17:30;8.20;99.90
18880;DHT22;9572;52.378;13.404;2024-01-25T15:19:57;8.20;99.90
18880;DHT22;9572;52.378;13.404;2024-01-25T15:22:24;8.20;99.90
18880;DHT22;9572;52.378;13.404;2024-01-25T15:24:51;8.20;99.90
18880;DHT22;9572;52.378;13.404;2024-01-25T15:27:18;8.20;99.90
18880;DHT22;9572;52.378;13.404;2024-01-25T15:29:46;8.20;99.90
18880;DHT22;9572;52.378;13.404;2024-01-25T15:32:14;8.20;99.90
18880;DHT22;9572;52.378;13.404;2024-01-25T15:34:41;8.20;99.90
18880;DHT22;9572;52.378;13.404;2024-01-25T15:37:08;8.20;99.90
18880;DHT22;9572;52.378;13.404;2024-01-25T15:39:35;8.20;99.90
18880;DHT22;9572;52.378;13.404;2024-01-25T15:42:01;8.20;99.90
18880;DHT22;9572;52.378;13.404;2024-01-25T15:44:28;8.10;99.90
18880;DHT22;9572;52.378;13.404;2024-01-25T15:46:57;8.10;99.90